createdAt,value
2018-11-13T00:00:44.758Z,11.59
2018-11-13T00:01:44.747Z,11.74
2018-11-13T00:02:45.032Z,11.71
2018-11-13T00:03:44.726Z,11.70
2018-11-13T00:04:46.140Z,11.68
2018-11-13T00:05:44.705Z,11.68
2018-11-13T00:06:44.697Z,11.67
2018-11-13T00:07:44.683Z,11.65
2018-11-13T00:08:44.676Z,11.64
2018-11-13T00:09:44.942Z,11.68
2018-11-13T00:10:44.899Z,11.68
2018-11-13T00:11:44.640Z,11.67
2018-11-13T00:12:44.630Z,11.59
2018-11-13T00:13:44.621Z,11.59
2018-11-13T00:14:44.612Z,11.64
2018-11-13T00:15:44.598Z,11.64
2018-11-13T00:16:45.903Z,11.61
2018-11-13T00:17:44.580Z,11.56
2018-11-13T00:18:44.620Z,11.57
2018-11-13T00:19:44.555Z,11.46
2018-11-13T00:20:44.545Z,11.49
2018-11-13T00:21:44.534Z,11.59
2018-11-13T00:22:45.406Z,11.49
2018-11-13T00:23:44.791Z,11.62
2018-11-13T00:24:44.507Z,11.57
2018-11-13T00:25:44.492Z,11.62
2018-11-13T00:26:44.482Z,11.65
2018-11-13T00:27:44.685Z,11.72
2018-11-13T00:28:44.534Z,11.86
2018-11-13T00:29:44.451Z,11.77
2018-11-13T00:30:44.714Z,11.85
2018-11-13T00:31:44.427Z,11.87
2018-11-13T00:32:44.423Z,11.89
2018-11-13T00:33:44.407Z,11.97
2018-11-13T00:34:44.466Z,11.93
2018-11-13T00:35:44.386Z,11.90
2018-11-13T00:36:44.377Z,11.99
2018-11-13T00:37:44.669Z,11.97
2018-11-13T00:38:44.358Z,11.96
2018-11-13T00:39:44.347Z,12.01
2018-11-13T00:40:44.432Z,11.96
2018-11-13T00:41:44.323Z,12.05
2018-11-13T00:42:44.312Z,11.90
2018-11-13T00:43:44.304Z,11.96
2018-11-13T00:44:44.760Z,11.90
2018-11-13T00:45:44.494Z,11.89
2018-11-13T00:46:44.337Z,11.97
2018-11-13T00:47:44.289Z,11.89
2018-11-13T00:48:44.249Z,11.97
2018-11-13T00:49:44.236Z,12.01
2018-11-13T00:50:45.298Z,11.93
2018-11-13T00:51:44.495Z,11.89
2018-11-13T00:52:44.271Z,11.87
2018-11-13T00:53:44.193Z,11.89
2018-11-13T00:54:44.197Z,11.89
2018-11-13T00:55:44.173Z,11.93
2018-11-13T00:56:44.164Z,11.90
2018-11-13T00:57:44.152Z,11.93
2018-11-13T00:58:44.679Z,12.01
2018-11-13T00:59:44.139Z,12.01
2018-11-13T01:00:44.136Z,11.94
2018-11-13T01:01:44.109Z,12.04
2018-11-13T01:02:44.101Z,11.96
2018-11-13T01:03:44.091Z,11.99
2018-11-13T01:04:44.149Z,11.93
2018-11-13T01:05:44.397Z,11.93
2018-11-13T01:06:44.060Z,11.97
2018-11-13T01:07:44.100Z,11.97
2018-11-13T01:08:44.035Z,11.93
2018-11-13T01:09:44.024Z,11.89
2018-11-13T01:10:44.087Z,11.89
2018-11-13T01:11:44.051Z,11.96
2018-11-13T01:12:47.200Z,12.04
2018-11-13T01:13:43.983Z,12.04
2018-11-13T01:14:43.972Z,12.01
2018-11-13T01:15:43.960Z,11.94
2018-11-13T01:16:44.035Z,11.94
2018-11-13T01:17:44.901Z,11.99
2018-11-13T01:18:43.928Z,11.96
2018-11-13T01:19:44.245Z,11.94
2018-11-13T01:20:43.907Z,11.94
2018-11-13T01:21:43.897Z,11.78
2018-11-13T01:22:43.963Z,11.86
2018-11-13T01:23:43.909Z,11.87
2018-11-13T01:24:43.866Z,11.85
2018-11-13T01:25:43.855Z,11.77
2018-11-13T01:26:43.845Z,11.82
2018-11-13T01:27:43.836Z,11.89
2018-11-13T01:28:43.891Z,11.78
2018-11-13T01:29:43.813Z,11.65
2018-11-13T01:30:43.801Z,11.65
2018-11-13T01:31:43.791Z,11.65
2018-11-13T01:32:44.131Z,11.54
2018-11-13T01:33:44.688Z,11.53
2018-11-13T01:34:43.879Z,11.50
2018-11-13T01:35:43.773Z,11.52
2018-11-13T01:36:43.738Z,11.52
2018-11-13T01:37:43.747Z,11.49
2018-11-13T01:38:43.716Z,11.56
2018-11-13T01:39:43.707Z,11.52
2018-11-13T01:40:44.064Z,11.53
2018-11-13T01:41:43.741Z,11.46
2018-11-13T01:42:43.675Z,11.53
2018-11-13T01:43:43.663Z,11.49
2018-11-13T01:44:43.654Z,11.52
2018-11-13T01:45:43.642Z,11.41
2018-11-13T01:46:43.703Z,11.43
2018-11-13T01:47:43.898Z,11.44
2018-11-13T01:48:43.610Z,11.39
2018-11-13T01:49:43.602Z,11.46
2018-11-13T01:50:43.604Z,11.44
2018-11-13T01:51:43.580Z,11.43
2018-11-13T01:52:43.906Z,11.50
2018-11-13T01:53:43.557Z,11.47
2018-11-13T01:54:43.836Z,11.47
2018-11-13T01:55:43.535Z,11.39
2018-11-13T01:56:43.529Z,11.54
2018-11-13T01:57:43.520Z,11.50
2018-11-13T01:58:43.577Z,11.52
2018-11-13T01:59:43.496Z,11.56
2018-11-13T02:00:43.484Z,11.53
2018-11-13T02:01:43.756Z,11.50
2018-11-13T02:02:43.466Z,11.44
2018-11-13T02:03:43.451Z,11.54
2018-11-13T02:04:43.512Z,11.53
2018-11-13T02:05:43.433Z,11.52
2018-11-13T02:06:43.423Z,11.54
2018-11-13T02:07:43.410Z,11.65
2018-11-13T02:08:43.710Z,11.57
2018-11-13T02:09:43.387Z,11.56
2018-11-13T02:10:44.405Z,11.56
2018-11-13T02:11:43.371Z,11.53
2018-11-13T02:12:43.357Z,11.62
2018-11-13T02:13:43.346Z,11.65
2018-11-13T02:14:43.335Z,11.65
2018-11-13T02:15:43.624Z,11.68
2018-11-13T02:16:43.395Z,11.59
2018-11-13T02:17:43.895Z,11.52
2018-11-13T02:18:43.294Z,11.52
2018-11-13T02:19:43.281Z,11.47
2018-11-13T02:20:43.271Z,11.39
2018-11-13T02:21:43.262Z,11.44
2018-11-13T02:22:43.611Z,11.43
2018-11-13T02:23:43.239Z,11.38
2018-11-13T02:24:43.228Z,11.44
2018-11-13T02:25:43.220Z,11.39
2018-11-13T02:26:43.208Z,11.41
2018-11-13T02:27:43.198Z,11.44
2018-11-13T02:28:43.425Z,11.47
2018-11-13T02:29:43.458Z,11.52
2018-11-13T02:30:43.166Z,11.57
2018-11-13T02:31:43.156Z,11.44
2018-11-13T02:32:43.147Z,11.64
2018-11-13T02:33:43.138Z,11.57
2018-11-13T02:34:43.202Z,11.54
2018-11-13T02:35:43.181Z,11.57
2018-11-13T02:36:43.379Z,11.52
2018-11-13T02:37:43.093Z,11.53
2018-11-13T02:38:43.080Z,11.53
2018-11-13T02:39:43.072Z,11.56
2018-11-13T02:40:44.105Z,11.65
2018-11-13T02:41:43.890Z,11.62
2018-11-13T02:42:43.038Z,11.56
2018-11-13T02:43:43.306Z,11.65
2018-11-13T02:44:43.017Z,11.65
2018-11-13T02:45:43.009Z,11.64
2018-11-13T02:46:43.385Z,11.68
2018-11-13T02:47:42.988Z,11.67
2018-11-13T02:48:42.984Z,11.65
2018-11-13T02:49:42.966Z,11.65
2018-11-13T02:50:43.251Z,11.65
2018-11-13T02:51:42.942Z,11.65
2018-11-13T02:52:43.980Z,11.64
2018-11-13T02:53:42.926Z,11.67
2018-11-13T02:54:42.911Z,11.64
2018-11-13T02:55:42.900Z,11.64
2018-11-13T02:56:42.890Z,11.61
2018-11-13T02:57:43.159Z,11.61
2018-11-13T02:58:43.115Z,11.65
2018-11-13T02:59:42.860Z,11.68
2018-11-13T03:02:21.348Z,11.65
2018-11-13T03:03:21.039Z,11.64
2018-11-13T03:04:21.031Z,11.68
2018-11-13T03:05:21.020Z,11.57
2018-11-13T03:06:21.009Z,11.57
2018-11-13T03:07:21.097Z,11.56
2018-11-13T03:08:21.512Z,11.59
2018-11-13T03:09:21.609Z,11.53
2018-11-13T03:10:21.618Z,11.57
2018-11-13T03:11:20.955Z,11.67
2018-11-13T03:12:20.944Z,11.67
2018-11-13T03:13:20.937Z,11.70
2018-11-13T03:14:21.042Z,11.59
2018-11-13T03:15:21.201Z,11.52
2018-11-13T03:16:20.902Z,11.52
2018-11-13T03:17:20.890Z,11.49
2018-11-13T03:18:20.880Z,11.47
2018-11-13T03:19:20.866Z,11.36
2018-11-13T03:20:20.985Z,11.44
2018-11-13T03:21:21.573Z,11.41
2018-11-13T03:22:21.123Z,11.44
2018-11-13T03:23:20.825Z,11.43
2018-11-13T03:24:20.812Z,11.43
2018-11-13T03:25:20.800Z,11.43
2018-11-13T03:26:20.910Z,11.52
2018-11-13T03:27:21.607Z,11.43
2018-11-13T03:28:20.770Z,11.43
2018-11-13T03:29:20.758Z,11.46
2018-11-13T03:30:20.750Z,11.46
2018-11-13T03:31:20.828Z,11.43
2018-11-13T03:32:21.570Z,11.41
2018-11-13T03:33:20.714Z,11.38
2018-11-13T03:34:20.981Z,11.44
2018-11-13T03:35:20.692Z,11.41
2018-11-13T03:36:20.683Z,11.41
2018-11-13T03:37:20.671Z,11.47
2018-11-13T03:38:20.814Z,11.47
2018-11-13T03:39:20.650Z,11.56
2018-11-13T03:40:20.638Z,11.47
2018-11-13T03:41:20.627Z,11.47
2018-11-13T03:42:20.617Z,11.53
2018-11-13T03:43:20.605Z,11.53
2018-11-13T03:44:20.713Z,11.59
2018-11-13T03:45:20.587Z,11.61
2018-11-13T03:46:20.849Z,11.57
2018-11-13T03:47:20.564Z,11.56
2018-11-13T03:48:20.552Z,11.64
2018-11-13T03:49:20.546Z,11.64
2018-11-13T03:50:20.733Z,11.59
2018-11-13T03:51:20.521Z,11.64
2018-11-13T03:52:20.511Z,11.68
2018-11-13T03:53:20.777Z,11.67
2018-11-13T03:54:20.488Z,11.57
2018-11-13T03:55:20.476Z,11.62
2018-11-13T03:56:21.567Z,11.71
2018-11-13T03:57:20.453Z,11.64
2018-11-13T03:58:20.446Z,11.67
2018-11-13T03:59:20.433Z,11.61
2018-11-13T04:00:20.740Z,11.65
2018-11-13T04:01:20.413Z,11.59
2018-11-13T04:02:20.523Z,11.44
2018-11-13T04:03:20.392Z,11.39
2018-11-13T04:04:20.380Z,11.39
2018-11-13T04:05:20.369Z,11.34
2018-11-13T04:06:20.359Z,11.36
2018-11-13T04:07:20.640Z,11.20
2018-11-13T04:08:20.485Z,11.21
2018-11-13T04:09:20.328Z,11.34
2018-11-13T04:10:20.315Z,11.36
2018-11-13T04:11:20.303Z,11.28
2018-11-13T04:12:20.291Z,11.31
2018-11-13T04:13:20.282Z,11.31
2018-11-13T04:14:20.707Z,11.38
2018-11-13T04:15:20.261Z,11.41
2018-11-13T04:16:20.249Z,11.35
2018-11-13T04:17:20.238Z,11.34
2018-11-13T04:18:20.228Z,11.39
2018-11-13T04:19:20.220Z,11.38
2018-11-13T04:20:20.324Z,11.41
2018-11-13T04:21:20.486Z,11.35
2018-11-13T04:22:20.187Z,11.41
2018-11-13T04:23:21.111Z,11.25
2018-11-13T04:24:20.165Z,11.34
2018-11-13T04:25:20.152Z,11.35
2018-11-13T04:26:20.182Z,11.27
2018-11-13T04:27:20.133Z,11.20
2018-11-13T04:28:20.400Z,11.19
2018-11-13T04:29:20.109Z,11.17
2018-11-13T04:30:20.103Z,11.20
2018-11-13T04:31:20.599Z,11.19
2018-11-13T04:32:20.146Z,11.10
2018-11-13T04:33:20.599Z,11.16
2018-11-13T04:34:20.056Z,11.13
2018-11-13T04:35:20.320Z,11.13
2018-11-13T04:36:20.033Z,11.11
2018-11-13T04:37:20.600Z,11.16
2018-11-13T04:38:20.054Z,11.17
2018-11-13T04:39:20.598Z,11.19
2018-11-13T04:40:19.996Z,11.14
2018-11-13T04:41:19.982Z,11.20
2018-11-13T04:42:20.884Z,11.21
2018-11-13T04:43:19.959Z,11.27
2018-11-13T04:44:19.985Z,11.29
2018-11-13T04:45:19.937Z,11.27
2018-11-13T04:46:19.925Z,11.27
2018-11-13T04:47:19.917Z,11.32
2018-11-13T04:48:20.598Z,11.21
2018-11-13T04:49:20.382Z,11.25
2018-11-13T04:50:21.623Z,11.35
2018-11-13T04:51:19.878Z,11.35
2018-11-13T04:52:19.865Z,11.28
2018-11-13T04:53:19.851Z,11.29
2018-11-13T04:54:19.843Z,11.31
2018-11-13T04:55:19.832Z,11.27
2018-11-13T04:56:21.288Z,11.35
2018-11-13T04:57:19.807Z,11.36
2018-11-13T04:58:19.797Z,11.32
2018-11-13T04:59:19.788Z,11.28
2018-11-13T05:00:19.778Z,11.31
2018-11-13T05:01:19.769Z,11.39
2018-11-13T05:02:20.145Z,11.29
2018-11-13T05:03:19.745Z,11.34
2018-11-13T05:04:19.733Z,11.34
2018-11-13T05:05:19.721Z,11.35
2018-11-13T05:06:19.711Z,11.34
2018-11-13T05:07:19.700Z,11.20
2018-11-13T05:08:19.819Z,11.29
2018-11-13T05:09:19.958Z,11.24
2018-11-13T05:10:19.735Z,11.29
2018-11-13T05:11:19.656Z,11.34
2018-11-13T05:12:19.647Z,11.35
2018-11-13T05:13:19.637Z,11.35
2018-11-13T05:14:19.758Z,11.43
2018-11-13T05:15:19.617Z,11.44
2018-11-13T05:16:19.957Z,11.41
2018-11-13T05:17:19.593Z,11.43
2018-11-13T05:18:19.586Z,11.31
2018-11-13T05:19:19.571Z,11.39
2018-11-13T05:20:19.761Z,11.35
2018-11-13T05:21:19.554Z,11.38
2018-11-13T05:22:19.538Z,11.38
2018-11-13T05:23:19.855Z,11.39
2018-11-13T05:24:19.517Z,11.43
2018-11-13T05:25:19.511Z,11.38
2018-11-13T05:26:19.779Z,11.43
2018-11-13T05:27:19.485Z,11.38
2018-11-13T05:28:19.477Z,11.44
2018-11-13T05:29:19.465Z,11.43
2018-11-13T05:30:19.733Z,11.39
2018-11-13T05:31:19.441Z,11.34
2018-11-13T05:32:19.557Z,11.47
2018-11-13T05:33:19.421Z,11.41
2018-11-13T05:34:19.409Z,11.46
2018-11-13T05:35:19.405Z,11.43
2018-11-13T05:36:19.388Z,11.46
2018-11-13T05:37:19.657Z,11.43
2018-11-13T05:38:19.498Z,11.41
2018-11-13T05:39:19.357Z,11.44
2018-11-13T05:40:19.344Z,11.41
2018-11-13T05:41:19.350Z,11.41
2018-11-13T05:42:19.325Z,11.43
2018-11-13T05:43:19.320Z,11.43
2018-11-13T05:44:20.591Z,11.35
2018-11-13T05:45:19.291Z,11.41
2018-11-13T05:46:19.280Z,11.43
2018-11-13T05:47:19.303Z,11.43
2018-11-13T05:48:19.259Z,11.39
2018-11-13T05:49:19.248Z,11.44
2018-11-13T05:50:19.357Z,11.46
2018-11-13T05:51:19.670Z,11.44
2018-11-13T05:52:19.219Z,11.41
2018-11-13T05:53:19.204Z,11.39
2018-11-13T05:54:19.194Z,11.36
2018-11-13T05:55:19.182Z,11.43
2018-11-13T05:56:19.309Z,11.43
2018-11-13T05:57:19.424Z,11.39
2018-11-13T05:58:19.489Z,11.31
2018-11-13T05:59:19.142Z,11.46
2018-11-13T06:00:19.132Z,11.43
2018-11-13T06:01:19.143Z,11.34
2018-11-13T06:02:19.318Z,11.35
2018-11-13T06:03:19.126Z,11.43
2018-11-13T06:04:19.144Z,11.46
2018-11-13T06:05:19.533Z,11.34
2018-11-13T06:06:19.090Z,11.44
2018-11-13T06:07:19.097Z,11.36
2018-11-13T06:08:20.059Z,11.34
2018-11-13T06:09:19.643Z,11.39
2018-11-13T06:10:19.052Z,11.39
2018-11-13T06:11:19.012Z,11.39
2018-11-13T06:12:19.330Z,11.39
2018-11-13T06:13:19.588Z,11.41
2018-11-13T06:14:20.029Z,11.46
2018-11-13T06:15:18.986Z,11.36
2018-11-13T06:16:18.960Z,11.38
2018-11-13T06:17:19.063Z,11.41
2018-11-13T06:18:19.677Z,11.39
2018-11-13T06:19:19.370Z,11.38
2018-11-13T06:20:19.815Z,11.35
2018-11-13T06:21:18.904Z,11.39
2018-11-13T06:22:18.894Z,11.35
2018-11-13T06:23:18.885Z,11.39
2018-11-13T06:24:18.870Z,11.36
2018-11-13T06:25:19.085Z,11.38
2018-11-13T06:26:19.519Z,11.44
2018-11-13T06:27:18.838Z,11.34
2018-11-13T06:28:18.829Z,11.28
2018-11-13T06:29:18.821Z,11.35
2018-11-13T06:30:19.553Z,11.31
2018-11-13T06:31:18.862Z,11.29
2018-11-13T06:32:19.194Z,11.35
2018-11-13T06:33:18.776Z,11.25
2018-11-13T06:34:18.796Z,11.31
2018-11-13T06:35:18.773Z,11.34
2018-11-13T06:36:18.830Z,11.31
2018-11-13T06:37:18.853Z,11.38
2018-11-13T06:38:18.947Z,11.31
2018-11-13T06:39:20.018Z,11.29
2018-11-13T06:40:18.737Z,11.32
2018-11-13T06:41:18.701Z,11.35
2018-11-13T06:42:18.676Z,11.35
2018-11-13T06:43:18.665Z,11.41
2018-11-13T06:44:18.694Z,11.38
2018-11-13T06:45:18.643Z,11.35
2018-11-13T06:46:19.774Z,11.41
2018-11-13T06:47:18.633Z,11.32
2018-11-13T06:48:18.649Z,11.41
2018-11-13T06:49:18.670Z,11.39
2018-11-13T06:50:18.635Z,11.34
2018-11-13T06:51:18.580Z,11.36
2018-11-13T06:52:18.569Z,11.39
2018-11-13T06:53:19.027Z,11.36
2018-11-13T06:54:18.549Z,11.44
2018-11-13T06:55:18.537Z,11.43
2018-11-13T06:56:18.702Z,11.36
2018-11-13T06:57:18.568Z,11.47
2018-11-13T06:58:18.625Z,11.43
2018-11-13T06:59:18.669Z,11.39
2018-11-13T07:00:18.930Z,11.41
2018-11-13T07:01:18.480Z,11.41
2018-11-13T07:02:18.534Z,11.39
2018-11-13T07:03:18.457Z,11.46
2018-11-13T07:04:18.440Z,11.46
2018-11-13T07:05:18.429Z,11.36
2018-11-13T07:06:18.422Z,11.41
2018-11-13T07:07:18.416Z,11.41
2018-11-13T07:08:18.439Z,11.46
2018-11-13T07:09:18.387Z,11.41
2018-11-13T07:10:18.379Z,11.49
2018-11-13T07:11:18.474Z,11.52
2018-11-13T07:12:18.358Z,11.47
2018-11-13T07:13:19.674Z,11.41
2018-11-13T07:14:18.548Z,11.50
2018-11-13T07:15:18.359Z,11.44
2018-11-13T07:16:18.312Z,11.43
2018-11-13T07:17:18.305Z,11.52
2018-11-13T07:18:18.352Z,11.47
2018-11-13T07:19:18.287Z,11.53
2018-11-13T07:20:18.313Z,11.49
2018-11-13T07:21:18.259Z,11.54
2018-11-13T07:22:18.251Z,11.49
2018-11-13T07:23:18.249Z,11.41
2018-11-13T07:24:18.224Z,11.39
2018-11-13T07:25:18.707Z,11.47
2018-11-13T07:26:18.283Z,11.44
2018-11-13T07:27:21.191Z,11.41
2018-11-13T07:28:18.397Z,11.44
2018-11-13T07:29:18.198Z,11.52
2018-11-13T07:30:18.180Z,11.41
2018-11-13T07:31:18.215Z,11.39
2018-11-13T07:32:18.294Z,11.39
2018-11-13T07:33:18.159Z,11.43
2018-11-13T07:34:19.137Z,11.50
2018-11-13T07:35:18.195Z,11.54
2018-11-13T07:36:18.096Z,11.52
2018-11-13T07:37:18.088Z,11.52
2018-11-13T07:38:19.251Z,11.52
2018-11-13T07:39:18.117Z,11.52
2018-11-13T07:40:20.585Z,11.43
2018-11-13T07:41:18.592Z,11.43
2018-11-13T07:42:18.200Z,11.38
2018-11-13T07:43:18.031Z,11.41
2018-11-13T07:44:18.085Z,11.52
2018-11-13T07:45:18.001Z,11.52
2018-11-13T07:46:17.989Z,11.65
2018-11-13T07:47:18.639Z,11.53
2018-11-13T07:48:17.983Z,11.53
2018-11-13T07:49:18.578Z,11.56
2018-11-13T07:50:18.577Z,11.62
2018-11-13T07:51:18.507Z,11.64
2018-11-13T07:52:17.927Z,11.64
2018-11-13T07:53:18.577Z,11.68
2018-11-13T07:54:17.903Z,11.65
2018-11-13T07:55:17.931Z,11.59
2018-11-13T07:56:18.660Z,11.62
2018-11-13T07:57:18.547Z,11.68
2018-11-13T07:58:18.389Z,11.65
2018-11-13T07:59:18.126Z,11.67
2018-11-13T08:00:18.010Z,11.67
2018-11-13T08:01:17.848Z,11.65
2018-11-13T08:02:18.585Z,11.57
2018-11-13T08:03:17.848Z,11.56
2018-11-13T08:04:17.801Z,11.57
2018-11-13T08:05:18.261Z,11.65
2018-11-13T08:06:17.908Z,11.62
2018-11-13T08:07:17.825Z,11.68
2018-11-13T08:08:17.971Z,11.61
2018-11-13T08:09:17.791Z,11.70
2018-11-13T08:10:17.738Z,11.70
2018-11-13T08:11:17.728Z,11.64
2018-11-13T08:12:18.082Z,11.67
2018-11-13T08:13:17.862Z,11.61
2018-11-13T08:14:17.733Z,11.64
2018-11-13T08:15:17.680Z,11.62
2018-11-13T08:16:17.706Z,11.52
2018-11-13T08:17:17.664Z,11.57
2018-11-13T08:18:18.629Z,11.49
2018-11-13T08:19:18.099Z,11.49
2018-11-13T08:20:17.666Z,11.59
2018-11-13T08:21:18.213Z,11.57
2018-11-13T08:22:21.752Z,11.57
2018-11-13T08:23:17.658Z,11.62
2018-11-13T08:24:17.605Z,11.59
2018-11-13T08:25:18.601Z,11.53
2018-11-13T08:26:17.810Z,11.52
2018-11-13T08:27:17.552Z,11.41
2018-11-13T08:28:17.561Z,11.49
2018-11-13T08:29:17.621Z,11.56
2018-11-13T08:30:17.521Z,11.57
2018-11-13T08:31:17.548Z,11.67
2018-11-13T08:32:17.553Z,11.64
2018-11-13T08:33:17.585Z,11.77
2018-11-13T08:34:17.476Z,11.82
2018-11-13T08:35:17.466Z,11.83
2018-11-13T08:36:17.486Z,11.94
2018-11-13T08:37:17.548Z,11.97
2018-11-13T08:38:17.789Z,12.11
2018-11-13T08:39:17.422Z,12.24
2018-11-13T08:40:18.109Z,12.21
2018-11-13T08:41:17.403Z,12.34
2018-11-13T08:42:17.390Z,12.33
2018-11-13T08:43:17.382Z,12.26
2018-11-13T08:44:17.898Z,12.29
2018-11-13T08:45:17.493Z,12.26
2018-11-13T08:46:17.432Z,12.23
2018-11-13T08:47:17.335Z,12.30
2018-11-13T08:48:17.326Z,12.26
2018-11-13T08:49:17.313Z,12.31
2018-11-13T08:50:17.439Z,12.23
2018-11-13T08:51:17.292Z,12.23
2018-11-13T08:52:17.283Z,12.29
2018-11-13T08:53:17.271Z,12.41
2018-11-13T08:54:17.260Z,12.38
2018-11-13T08:55:17.250Z,12.31
2018-11-13T08:56:19.539Z,12.21
2018-11-13T08:57:17.231Z,12.31
2018-11-13T08:58:17.367Z,12.30
2018-11-13T08:59:17.350Z,12.33
2018-11-13T09:00:17.196Z,12.26
2018-11-13T09:01:17.268Z,12.41
2018-11-13T09:02:19.168Z,12.29
2018-11-13T09:03:17.196Z,12.39
2018-11-13T09:04:17.236Z,12.27
2018-11-13T09:05:21.694Z,12.30
2018-11-13T09:06:17.129Z,12.31
2018-11-13T09:07:17.120Z,12.30
2018-11-13T09:08:17.376Z,12.33
2018-11-13T09:09:17.670Z,12.37
2018-11-13T09:10:17.347Z,12.37
2018-11-13T09:11:17.139Z,12.51
2018-11-13T09:12:17.103Z,12.59
2018-11-13T09:13:17.680Z,12.49
2018-11-13T09:14:18.694Z,12.42
2018-11-13T09:15:17.721Z,12.39
2018-11-13T09:16:17.340Z,12.49
2018-11-13T09:17:17.037Z,12.59
2018-11-13T09:18:17.692Z,12.56
2018-11-13T09:19:18.112Z,12.51
2018-11-13T09:20:17.089Z,12.54
2018-11-13T09:21:17.741Z,12.59
2018-11-13T09:22:18.050Z,12.54
2018-11-13T09:23:17.764Z,12.60
2018-11-13T09:24:16.989Z,12.70
2018-11-13T09:25:17.615Z,12.71
2018-11-13T09:26:18.233Z,12.62
2018-11-13T09:27:17.830Z,12.70
2018-11-13T09:28:17.737Z,12.75
2018-11-13T09:29:17.512Z,12.77
2018-11-13T09:30:18.821Z,12.74
2018-11-13T09:31:16.954Z,12.85
2018-11-13T09:32:19.542Z,12.77
2018-11-13T09:33:17.531Z,12.74
2018-11-13T09:34:16.883Z,12.69
2018-11-13T09:35:16.874Z,12.59
2018-11-13T09:36:17.255Z,12.59
2018-11-13T09:37:16.798Z,12.60
2018-11-13T09:38:17.056Z,12.62
2018-11-13T09:39:16.795Z,12.64
2018-11-13T09:40:16.951Z,12.62
2018-11-13T09:41:16.803Z,12.66
2018-11-13T09:42:16.782Z,12.57
2018-11-13T09:43:17.170Z,12.57
2018-11-13T09:44:17.245Z,12.51
2018-11-13T09:45:16.710Z,12.49
2018-11-13T09:46:17.990Z,12.60
2018-11-13T09:47:16.729Z,12.62
2018-11-13T09:48:16.756Z,12.62
2018-11-13T09:49:16.723Z,12.57
2018-11-13T09:50:17.437Z,12.60
2018-11-13T09:51:16.678Z,12.59
2018-11-13T09:52:17.116Z,12.62
2018-11-13T09:53:17.500Z,12.60
2018-11-13T09:54:17.528Z,12.64
2018-11-13T09:55:16.847Z,12.63
2018-11-13T09:56:17.777Z,12.59
2018-11-13T09:57:17.538Z,12.56
2018-11-13T09:58:16.641Z,12.54
2018-11-13T09:59:16.598Z,12.57
2018-11-13T10:00:16.843Z,12.60
2018-11-13T10:01:16.964Z,12.64
2018-11-13T10:02:17.953Z,12.64
2018-11-13T10:03:17.288Z,12.63
2018-11-13T10:04:17.531Z,12.57
2018-11-13T10:05:16.832Z,12.54
2018-11-13T10:06:16.752Z,12.62
2018-11-13T10:07:16.505Z,12.57
2018-11-13T10:08:16.688Z,12.57
2018-11-13T10:09:16.639Z,12.54
2018-11-13T10:10:16.634Z,12.56
2018-11-13T10:11:17.005Z,12.60
2018-11-13T10:12:16.432Z,12.59
2018-11-13T10:13:16.456Z,12.59
2018-11-13T10:14:16.772Z,12.57
2018-11-13T10:15:16.439Z,12.51
2018-11-13T10:16:16.449Z,12.49
2018-11-13T10:17:16.409Z,12.57
2018-11-13T10:18:16.988Z,12.49
2018-11-13T10:19:16.571Z,12.56
2018-11-13T10:20:16.956Z,12.51
2018-11-13T10:21:16.416Z,12.54
2018-11-13T10:22:16.410Z,12.60
2018-11-13T10:23:16.471Z,12.59
2018-11-13T10:24:16.359Z,12.59
2018-11-13T10:25:16.732Z,12.66
2018-11-13T10:26:16.649Z,12.64
2018-11-13T10:27:16.433Z,12.66
2018-11-13T10:28:16.441Z,12.63
2018-11-13T10:29:16.260Z,12.62
2018-11-13T10:30:16.238Z,12.52
2018-11-13T10:31:16.210Z,12.56
2018-11-13T10:32:17.284Z,12.56
2018-11-13T10:33:16.361Z,12.60
2018-11-13T10:34:16.249Z,12.71
2018-11-13T10:35:16.210Z,12.64
2018-11-13T10:36:16.332Z,12.64
2018-11-13T10:37:16.148Z,12.70
2018-11-13T10:38:16.881Z,12.69
2018-11-13T10:39:16.228Z,12.66
2018-11-13T10:40:16.303Z,12.77
2018-11-13T10:41:17.274Z,12.93
2018-11-13T10:42:16.169Z,13.02
2018-11-13T10:43:16.267Z,13.06
2018-11-13T10:44:16.241Z,13.04
2018-11-13T10:45:16.626Z,13.11
2018-11-13T10:46:16.127Z,13.11
2018-11-13T10:47:16.041Z,13.07
2018-11-13T10:48:16.148Z,12.97
2018-11-13T10:49:16.196Z,12.88
2018-11-13T10:50:17.888Z,12.92
2018-11-13T10:51:16.066Z,12.82
2018-11-13T10:52:16.619Z,12.84
2018-11-13T10:53:15.980Z,12.79
2018-11-13T10:54:16.564Z,12.92
2018-11-13T10:55:15.952Z,13.09
2018-11-13T10:56:16.351Z,13.30
2018-11-13T10:57:16.121Z,13.18
2018-11-13T10:58:16.185Z,13.15
2018-11-13T10:59:15.946Z,13.22
2018-11-13T11:00:15.930Z,13.24
2018-11-13T11:01:15.957Z,13.18
2018-11-13T11:02:16.542Z,13.20
2018-11-13T11:03:15.992Z,13.21
2018-11-13T11:04:16.027Z,13.12
2018-11-13T11:05:15.937Z,13.14
2018-11-13T11:06:15.871Z,13.22
2018-11-13T11:07:15.928Z,13.18
2018-11-13T11:08:18.146Z,13.12
2018-11-13T11:09:15.904Z,13.14
2018-11-13T11:10:15.914Z,13.11
2018-11-13T11:11:16.591Z,13.20
2018-11-13T11:12:15.825Z,13.17
2018-11-13T11:13:16.190Z,13.20
2018-11-13T11:14:16.183Z,13.14
2018-11-13T11:15:16.150Z,13.22
2018-11-13T11:16:15.809Z,13.25
2018-11-13T11:17:15.713Z,13.15
2018-11-13T11:18:15.942Z,13.29
2018-11-13T11:19:16.220Z,13.44
2018-11-13T11:20:16.668Z,13.47
2018-11-13T11:21:15.842Z,13.38
2018-11-13T11:22:18.313Z,13.21
2018-11-13T11:23:15.834Z,13.27
2018-11-13T11:24:15.839Z,13.15
2018-11-13T11:25:15.828Z,12.97
2018-11-13T11:26:16.827Z,12.95
2018-11-13T11:27:15.832Z,12.87
2018-11-13T11:28:15.824Z,12.75
2018-11-13T11:29:16.037Z,12.74
2018-11-13T11:30:15.761Z,12.81
2018-11-13T11:31:15.566Z,12.81
2018-11-13T11:32:15.672Z,12.82
2018-11-13T11:33:15.782Z,12.78
2018-11-13T11:34:15.720Z,12.79
2018-11-13T11:35:15.538Z,12.95
2018-11-13T11:36:16.017Z,12.85
2018-11-13T11:37:15.536Z,12.81
2018-11-13T11:38:15.765Z,12.81
2018-11-13T11:39:15.660Z,12.82
2018-11-13T11:40:15.683Z,12.79
2018-11-13T11:41:15.498Z,12.87
2018-11-13T11:42:15.568Z,12.93
2018-11-13T11:43:15.815Z,12.95
2018-11-13T11:44:15.861Z,13.03
2018-11-13T11:45:15.565Z,13.40
2018-11-13T11:46:15.758Z,13.41
2018-11-13T11:47:16.520Z,13.22
2018-11-13T11:48:15.798Z,13.40
2018-11-13T11:49:15.415Z,13.29
2018-11-13T11:50:16.072Z,13.15
2018-11-13T11:51:34.819Z,13.14
2018-11-13T11:52:15.447Z,13.07
2018-11-13T11:53:15.399Z,13.00
2018-11-13T11:54:15.427Z,12.96
2018-11-13T11:55:15.417Z,12.95
2018-11-13T11:56:15.519Z,12.95
2018-11-13T11:57:15.326Z,12.96
2018-11-13T11:58:16.745Z,12.95
2018-11-13T11:59:15.315Z,13.07
2018-11-13T12:00:15.722Z,13.22
2018-11-13T12:01:15.339Z,13.24
2018-11-13T12:02:17.122Z,13.22
2018-11-13T12:03:15.340Z,13.27
2018-11-13T12:04:16.302Z,13.40
2018-11-13T12:05:15.697Z,13.44
2018-11-13T12:06:15.719Z,13.43
2018-11-13T12:07:15.411Z,13.41
2018-11-13T12:08:15.543Z,13.54
2018-11-13T12:09:16.224Z,14.06
2018-11-13T12:10:15.244Z,16.18
2018-11-13T12:11:15.397Z,15.46
2018-11-13T12:12:15.578Z,14.99
2018-11-13T12:13:15.269Z,14.34
2018-11-13T12:14:15.474Z,13.88
2018-11-13T12:15:15.672Z,14.19
2018-11-13T12:16:16.338Z,13.96
2018-11-13T12:17:17.114Z,13.76
2018-11-13T12:18:15.715Z,13.55
2018-11-13T12:19:16.139Z,13.47
2018-11-13T12:20:18.450Z,13.44
2018-11-13T12:21:15.531Z,13.27
2018-11-13T12:22:16.643Z,13.20
2018-11-13T12:23:15.222Z,13.27
2018-11-13T12:24:15.689Z,13.22
2018-11-13T12:25:15.759Z,13.21
2018-11-13T12:26:15.285Z,13.12
2018-11-13T12:27:15.038Z,13.00
2018-11-13T12:28:15.629Z,12.97
2018-11-13T12:29:15.488Z,13.00
2018-11-13T12:30:15.647Z,12.95
2018-11-13T12:31:15.646Z,12.95
2018-11-13T12:32:15.055Z,12.82
2018-11-13T12:33:15.626Z,12.78
2018-11-13T12:34:14.952Z,12.64
2018-11-13T12:35:15.159Z,12.62
2018-11-13T12:36:15.317Z,12.59
2018-11-13T12:37:15.079Z,12.59
2018-11-13T12:38:15.002Z,12.52
2018-11-13T12:39:15.064Z,12.42
2018-11-13T12:40:14.873Z,12.42
2018-11-13T12:41:14.943Z,12.37
2018-11-13T12:42:14.996Z,12.21
2018-11-13T12:43:15.315Z,12.16
2018-11-13T12:44:14.898Z,12.11
2018-11-13T12:45:14.850Z,11.94
2018-11-13T12:46:15.761Z,11.85
2018-11-13T12:47:14.829Z,11.68
2018-11-13T12:48:15.647Z,11.61
2018-11-13T12:49:15.197Z,11.41
2018-11-13T12:50:18.193Z,11.31
2018-11-13T12:51:14.894Z,11.27
2018-11-13T12:52:14.777Z,11.20
2018-11-13T12:53:14.784Z,11.25
2018-11-13T12:54:14.783Z,11.20